Donnie Sonier — WDF9285 — position and weather

sailwx.info

Track history (hours):
 
Tides and Currents Weather Stations Pressure Air Temp Water Temp Dewpoint Dewpoint Depression Visibility Wind Speed Wind Dir Waves Ship Positions

Donnie Sonier

Owner: LeBeouf Bros. Towing, LLC, Houma, LA. More information available from US FCC via Universal Licensing System and Coast Guard Vessel Documentation Center.

Last reported at 2017-May-21 11:04 UTC. Time now 2017-May-24 11:51 UTC.
Position N 29°35' W 090°35'.

Length 22 m; draft 3.5 m.

Type: Tug. MMSI: 367503580.

Date/timePositionNaut miles runAvg speedWind from/ knotsBaromVisibWave heightAir tempDewpointWater temp
2017-May-21 11:04N 29°35' W 090°35'0 3.3
2017-May-21 11:00N 29°35' W 090°36'0 0.1
2017-May-21 10:27N 29°35' W 090°36'0 0.0
2017-May-21 10:00N 29°35' W 090°36'0 0.0
2017-May-21 09:30N 29°35' W 090°36'0 0.0
2017-May-21 09:00N 29°35' W 090°36'0 0.2
2017-May-21 08:30N 29°35' W 090°36'0 0.7
2017-May-21 08:00N 29°35' W 090°36'0 0.7
2017-May-21 07:30N 29°35' W 090°36'0 0.3
2017-May-21 07:00N 29°35' W 090°36'0 0.7
2017-May-21 06:27N 29°35' W 090°36'0 0.1
2017-May-21 06:00N 29°35' W 090°36'0 0.1
2017-May-21 05:23N 29°35' W 090°36'0 0.2
2017-May-21 05:00N 29°35' W 090°36'0 0.0
2017-May-21 04:30N 29°35' W 090°36'0 0.0
2017-May-21 04:00N 29°35' W 090°36'0 0.0
2017-May-21 03:30N 29°35' W 090°36'0 0.0
2017-May-21 03:00N 29°35' W 090°36'0 0.0
2017-May-21 02:30N 29°35' W 090°36'0 0.0
2017-May-21 01:58N 29°35' W 090°36'0 0.0
2017-May-21 01:30N 29°35' W 090°36'0 0.0
2017-May-21 01:00N 29°35' W 090°36'0 0.0
2017-May-21 00:30N 29°35' W 090°36'0 0.0
2017-May-21 00:00N 29°35' W 090°36'0 0.0
2017-May-20 23:30N 29°35' W 090°36'0 0.0
2017-May-20 23:00N 29°35' W 090°36'0 0.0
2017-May-20 22:30N 29°35' W 090°36'0 0.0
2017-May-20 22:00N 29°35' W 090°36'0 0.0
2017-May-20 21:31N 29°35' W 090°36'0 0.0
2017-May-20 21:00N 29°35' W 090°36'0 0.0
2017-May-20 20:31N 29°35' W 090°36'0 0.0
2017-May-20 20:00N 29°35' W 090°36'0 0.0
2017-May-20 19:30N 29°35' W 090°36'0 0.0
2017-May-20 19:00N 29°35' W 090°36'0 0.0
2017-May-20 18:30N 29°35' W 090°36'1 1.6
2017-May-20 18:00N 29°34' W 090°36'1 1.4
2017-May-20 17:30N 29°35' W 090°36'0 0.0
2017-May-20 17:00N 29°35' W 090°36'0 0.0
2017-May-20 16:30N 29°35' W 090°36'0 0.0
2017-May-20 16:00N 29°35' W 090°36'0 0.0
2017-May-20 15:30N 29°35' W 090°36'0 0.0
2017-May-20 15:00N 29°35' W 090°36'0 0.0
2017-May-20 14:30N 29°35' W 090°36'0 0.1
2017-May-20 13:31N 29°35' W 090°36'1 1.5
2017-May-20 13:00N 29°34' W 090°36'1 1.5
2017-May-20 12:30N 29°35' W 090°36'0 0.3
2017-May-20 11:59N 29°35' W 090°36'0 0.0
2017-May-20 11:30N 29°35' W 090°36'0 0.7
2017-May-20 11:00N 29°35' W 090°36'1 2.7
2017-May-20 10:28N 29°35' W 090°38'2 4.7
2017-May-20 09:59N 29°36' W 090°40'2 3.7
2017-May-20 09:31N 29°37' W 090°42'1 2.8
2017-May-20 09:01N 29°36' W 090°43'2 3.6
2017-May-20 08:31N 29°34' W 090°43'2 3.5
2017-May-20 08:01N 29°33' W 090°45'0 0.5
2017-May-20 07:31N 29°33' W 090°45'0 0.4
2017-May-20 07:01N 29°33' W 090°45'0 0.6
2017-May-20 06:30N 29°32' W 090°46'3 5.6
2017-May-20 06:00N 29°32' W 090°49'64 4.4
2017-May-19 15:27N 29°50' W 091°59'3 5.8
2017-May-19 15:00N 29°49' W 092°02'5 5.4
2017-May-19 14:00N 29°47' W 092°08'1 2.3
2017-May-19 13:31N 29°47' W 092°09'1 2.0
2017-May-19 13:01N 29°47' W 092°10'2 3.8
2017-May-19 12:31N 29°47' W 092°12'2 4.3
2017-May-19 12:00N 29°48' W 092°15'2 4.6
2017-May-19 11:31N 29°49' W 092°17'2 3.9
2017-May-19 11:01N 29°50' W 092°19'2 3.5
2017-May-19 10:31N 29°51' W 092°21'43 3.7
2017-May-18 22:58N 29°56' W 093°09'2 4.7
2017-May-18 22:31N 29°58' W 093°11'2 4.6
2017-May-18 22:01N 29°59' W 093°13'2 3.6
2017-May-18 21:30N 30°01' W 093°14'2 4.1
2017-May-18 21:01N 30°02' W 093°16'2 4.6
2017-May-18 20:31N 30°05' W 093°17'1 2.7
2017-May-18 20:01N 30°05' W 093°18'1 1.9
2017-May-18 19:30N 30°06' W 093°18'1 2.7
2017-May-18 19:01N 30°05' W 093°20'1 2.4
2017-May-18 18:31N 30°04' W 093°20'1 2.4
2017-May-18 18:01N 30°04' W 093°22'2 3.1
2017-May-18 17:31N 30°04' W 093°23'2 4.5
2017-May-18 16:59N 30°04' W 093°26'2 4.5
2017-May-18 16:30N 30°04' W 093°29'2 4.7
2017-May-18 15:59N 30°04' W 093°31'79 4.1
2017-May-17 20:43N 29°33' W 094°55'1 6.3
2017-May-17 20:30N 29°34' W 094°56'3 6.0
2017-May-17 20:00N 29°37' W 094°57'3 6.6
2017-May-17 19:30N 29°40' W 094°59'2 4.8
2017-May-17 19:00N 29°42' W 095°00'1 1.8
2017-May-17 18:23N 29°42' W 095°02'0 0.1
2017-May-17 18:00N 29°42' W 095°01'0 0.0
2017-May-17 17:31N 29°42' W 095°01'0 0.0
2017-May-17 17:00N 29°42' W 095°01'1 1.8
2017-May-17 16:29N 29°42' W 095°00'2 4.8
2017-May-17 15:59N 29°41' W 094°58'2 4.0
2017-May-17 15:31N 29°40' W 094°56'0 0.0
2017-May-16 22:14N 29°40' W 094°56'1 4.3
2017-May-16 22:00N 29°41' W 094°57'1 2.7
2017-May-16 21:27N 29°41' W 094°59'0 0.0
2017-May-16 21:00N 29°41' W 094°59'2 5.0
2017-May-16 20:31N 29°42' W 095°01'1 2.5
2017-May-16 19:58N 29°42' W 095°03'0 0.1
2017-May-16 19:31N 29°42' W 095°03'1 2.4
2017-May-16 18:57N 29°42' W 095°01'3 5.8
2017-May-16 18:30N 29°41' W 094°59'1 1.5
2017-May-16 18:00N 29°41' W 094°58'2 3.7
2017-May-16 17:30N 29°40' W 094°56'0 0.3
2017-May-16 17:01N 29°40' W 094°56'0 0.0
2017-May-16 06:00N 29°40' W 094°56'0 0.0
2017-May-15 21:33N 29°40' W 094°56'0 2.1
2017-May-15 21:25N 29°40' W 094°56'2 5.0
2017-May-15 21:00N 29°41' W 094°58'1 1.6
2017-May-15 20:30N 29°41' W 094°59'2 3.7
2017-May-15 20:00N 29°42' W 095°01'2 0.3
2017-May-15 13:41N 29°42' W 095°03'0 0.0
2017-May-15 13:30N 29°42' W 095°03'0 0.0
2017-May-15 13:01N 29°42' W 095°03'0 0.0
2017-May-15 12:23N 29°42' W 095°03'0 0.0
2017-May-15 11:54N 29°42' W 095°03'0 0.0
2017-May-15 11:28N 29°42' W 095°03'0 0.0
2017-May-15 10:45N 29°42' W 095°03'0 0.0
2017-May-15 10:30N 29°42' W 095°03'0 0.0
2017-May-15 09:58N 29°42' W 095°03'0 0.0
2017-May-15 09:28N 29°42' W 095°03'0 0.0
2017-May-15 08:59N 29°42' W 095°03'0 0.0
2017-May-15 08:29N 29°42' W 095°03'0 0.0
2017-May-15 07:59N 29°42' W 095°03'0 0.0
2017-May-15 07:26N 29°42' W 095°03'0 0.0
2017-May-15 06:52N 29°42' W 095°03'0 0.0
2017-May-15 06:21N 29°42' W 095°03'0 0.0
2017-May-15 05:51N 29°42' W 095°03'0 0.0
2017-May-15 05:22N 29°42' W 095°03'0 0.0
2017-May-15 04:20N 29°42' W 095°03'0 0.0
2017-May-15 03:51N 29°42' W 095°03'0 0.0
2017-May-15 02:58N 29°42' W 095°03'0 0.0
2017-May-15 02:19N 29°42' W 095°03'0 0.0
2017-May-15 01:51N 29°42' W 095°03'0 0.0
2017-May-15 01:25N 29°42' W 095°03'0 0.0
2017-May-15 00:58N 29°42' W 095°03'0 0.0
2017-May-14 22:45N 29°42' W 095°03'0 0.0
2017-May-14 22:20N 29°42' W 095°03'0 0.0
2017-May-14 21:45N 29°42' W 095°03'0 0.0
2017-May-14 21:21N 29°42' W 095°03'0 0.0
2017-May-14 20:52N 29°42' W 095°03'0 0.0
2017-May-14 20:29N 29°42' W 095°03'0 0.0
2017-May-14 18:34N 29°42' W 095°03'0 0.0
2017-May-14 18:09N 29°42' W 095°03'0 0.0
2017-May-14 17:43N 29°42' W 095°03'0 0.0
2017-May-14 17:24N 29°42' W 095°03'0 0.2
2017-May-14 16:50N 29°42' W 095°03'1 3.1
2017-May-14 16:29N 29°42' W 095°01'1 1.2
2017-May-14 16:00N 29°42' W 095°02'1 1.2
2017-May-14 15:29N 29°42' W 095°03'0 0.1
2017-May-14 15:00N 29°42' W 095°03'0 0.0
2017-May-14 14:30N 29°42' W 095°03'0 0.0
2017-May-14 13:30N 29°42' W 095°03'0 0.0
2017-May-14 13:00N 29°42' W 095°03'0 0.0
2017-May-14 12:30N 29°42' W 095°03'0 0.0
2017-May-14 12:00N 29°42' W 095°03'0 0.0
2017-May-14 11:31N 29°42' W 095°03'0 0.0
2017-May-14 11:00N 29°42' W 095°03'0 0.0
2017-May-14 10:31N 29°42' W 095°03'0 0.0
2017-May-14 10:01N 29°42' W 095°03'0 0.0
2017-May-14 09:30N 29°42' W 095°03'0 0.0
2017-May-14 09:01N 29°42' W 095°03'0 0.0
2017-May-14 08:30N 29°42' W 095°03'0 0.0
2017-May-14 08:00N 29°42' W 095°03'0 0.0
2017-May-14 07:30N 29°42' W 095°03'0 0.0
2017-May-14 06:59N 29°42' W 095°03'0 0.0
2017-May-14 06:30N 29°42' W 095°03'0 0.0
2017-May-14 06:00N 29°42' W 095°03'0 0.0
2017-May-14 05:30N 29°42' W 095°03'0 0.0
2017-May-14 05:00N 29°42' W 095°03'0 0.0
2017-May-14 04:30N 29°42' W 095°03'0 0.2
2017-May-14 04:00N 29°42' W 095°03'2 3.2
2017-May-14 03:30N 29°44' W 095°02'1 0.0
2017-May-13 04:49N 29°43' W 095°01'1 4.2
2017-May-13 04:30N 29°42' W 095°02'0 0.3
2017-May-13 03:19N 29°42' W 095°03'0 0.0
2017-May-13 02:45N 29°42' W 095°03'0 0.0
2017-May-13 02:29N 29°42' W 095°03'0 0.0
2017-May-12 15:46N 29°42' W 095°03'0 0.0
2017-May-12 15:29N 29°42' W 095°03'0 0.0
2017-May-12 14:53N 29°42' W 095°03'0 0.0
2017-May-12 14:01N 29°42' W 095°03'0 0.0
2017-May-12 13:20N 29°42' W 095°03'0 0.0
2017-May-12 09:12N 29°42' W 095°03'0 0.0
2017-May-12 08:59N 29°42' W 095°03'0 0.0
2017-May-12 08:25N 29°42' W 095°03'  
Track history (hours):
 
Tides and Currents Weather Stations Pressure Air Temp Water Temp Dewpoint Dewpoint Depression Visibility Wind Speed Wind Dir Waves Ship Positions

Donnie Sonier

Owner: LeBeouf Bros. Towing, LLC, Houma, LA. More information available from US FCC via Universal Licensing System and Coast Guard Vessel Documentation Center.

Last reported at 2017-May-21 11:04 UTC. Time now 2017-May-24 11:51 UTC.
Position N 29°35' W 090°35'.

Length 22 m; draft 3.5 m.

Type: Tug. MMSI: 367503580.

Date/timePositionNaut miles runAvg speedWind from/ knotsBaromVisibWave heightAir tempDewpointWater temp
2017-May-21 11:04N 29°35' W 090°35'0 3.3
2017-May-21 11:00N 29°35' W 090°36'0 0.1
2017-May-21 10:27N 29°35' W 090°36'0 0.0
2017-May-21 10:00N 29°35' W 090°36'0 0.0
2017-May-21 09:30N 29°35' W 090°36'0 0.0
2017-May-21 09:00N 29°35' W 090°36'0 0.2
2017-May-21 08:30N 29°35' W 090°36'0 0.7
2017-May-21 08:00N 29°35' W 090°36'0 0.7
2017-May-21 07:30N 29°35' W 090°36'0 0.3
2017-May-21 07:00N 29°35' W 090°36'0 0.7
2017-May-21 06:27N 29°35' W 090°36'0 0.1
2017-May-21 06:00N 29°35' W 090°36'0 0.1
2017-May-21 05:23N 29°35' W 090°36'0 0.2
2017-May-21 05:00N 29°35' W 090°36'0 0.0
2017-May-21 04:30N 29°35' W 090°36'0 0.0
2017-May-21 04:00N 29°35' W 090°36'0 0.0
2017-May-21 03:30N 29°35' W 090°36'0 0.0
2017-May-21 03:00N 29°35' W 090°36'0 0.0
2017-May-21 02:30N 29°35' W 090°36'0 0.0
2017-May-21 01:58N 29°35' W 090°36'0 0.0
2017-May-21 01:30N 29°35' W 090°36'0 0.0
2017-May-21 01:00N 29°35' W 090°36'0 0.0
2017-May-21 00:30N 29°35' W 090°36'0 0.0
2017-May-21 00:00N 29°35' W 090°36'0 0.0
2017-May-20 23:30N 29°35' W 090°36'0 0.0
2017-May-20 23:00N 29°35' W 090°36'0 0.0
2017-May-20 22:30N 29°35' W 090°36'0 0.0
2017-May-20 22:00N 29°35' W 090°36'0 0.0
2017-May-20 21:31N 29°35' W 090°36'0 0.0
2017-May-20 21:00N 29°35' W 090°36'0 0.0
2017-May-20 20:31N 29°35' W 090°36'0 0.0
2017-May-20 20:00N 29°35' W 090°36'0 0.0
2017-May-20 19:30N 29°35' W 090°36'0 0.0
2017-May-20 19:00N 29°35' W 090°36'0 0.0
2017-May-20 18:30N 29°35' W 090°36'1 1.6
2017-May-20 18:00N 29°34' W 090°36'1 1.4
2017-May-20 17:30N 29°35' W 090°36'0 0.0
2017-May-20 17:00N 29°35' W 090°36'0 0.0
2017-May-20 16:30N 29°35' W 090°36'0 0.0
2017-May-20 16:00N 29°35' W 090°36'0 0.0
2017-May-20 15:30N 29°35' W 090°36'0 0.0
2017-May-20 15:00N 29°35' W 090°36'0 0.0
2017-May-20 14:30N 29°35' W 090°36'0 0.1
2017-May-20 13:31N 29°35' W 090°36'1 1.5
2017-May-20 13:00N 29°34' W 090°36'1 1.5
2017-May-20 12:30N 29°35' W 090°36'0 0.3
2017-May-20 11:59N 29°35' W 090°36'0 0.0
2017-May-20 11:30N 29°35' W 090°36'0 0.7
2017-May-20 11:00N 29°35' W 090°36'1 2.7
2017-May-20 10:28N 29°35' W 090°38'2 4.7
2017-May-20 09:59N 29°36' W 090°40'2 3.7
2017-May-20 09:31N 29°37' W 090°42'1 2.8
2017-May-20 09:01N 29°36' W 090°43'2 3.6
2017-May-20 08:31N 29°34' W 090°43'2 3.5
2017-May-20 08:01N 29°33' W 090°45'0 0.5
2017-May-20 07:31N 29°33' W 090°45'0 0.4
2017-May-20 07:01N 29°33' W 090°45'0 0.6
2017-May-20 06:30N 29°32' W 090°46'3 5.6
2017-May-20 06:00N 29°32' W 090°49'64 4.4
2017-May-19 15:27N 29°50' W 091°59'3 5.8
2017-May-19 15:00N 29°49' W 092°02'5 5.4
2017-May-19 14:00N 29°47' W 092°08'1 2.3
2017-May-19 13:31N 29°47' W 092°09'1 2.0
2017-May-19 13:01N 29°47' W 092°10'2 3.8
2017-May-19 12:31N 29°47' W 092°12'2 4.3
2017-May-19 12:00N 29°48' W 092°15'2 4.6
2017-May-19 11:31N 29°49' W 092°17'2 3.9
2017-May-19 11:01N 29°50' W 092°19'2 3.5
2017-May-19 10:31N 29°51' W 092°21'43 3.7
2017-May-18 22:58N 29°56' W 093°09'2 4.7
2017-May-18 22:31N 29°58' W 093°11'2 4.6
2017-May-18 22:01N 29°59' W 093°13'2 3.6
2017-May-18 21:30N 30°01' W 093°14'2 4.1
2017-May-18 21:01N 30°02' W 093°16'2 4.6
2017-May-18 20:31N 30°05' W 093°17'1 2.7
2017-May-18 20:01N 30°05' W 093°18'1 1.9
2017-May-18 19:30N 30°06' W 093°18'1 2.7
2017-May-18 19:01N 30°05' W 093°20'1 2.4
2017-May-18 18:31N 30°04' W 093°20'1 2.4
2017-May-18 18:01N 30°04' W 093°22'2 3.1
2017-May-18 17:31N 30°04' W 093°23'2 4.5
2017-May-18 16:59N 30°04' W 093°26'2 4.5
2017-May-18 16:30N 30°04' W 093°29'2 4.7
2017-May-18 15:59N 30°04' W 093°31'79 4.1
2017-May-17 20:43N 29°33' W 094°55'1 6.3
2017-May-17 20:30N 29°34' W 094°56'3 6.0
2017-May-17 20:00N 29°37' W 094°57'3 6.6
2017-May-17 19:30N 29°40' W 094°59'2 4.8
2017-May-17 19:00N 29°42' W 095°00'1 1.8
2017-May-17 18:23N 29°42' W 095°02'0 0.1
2017-May-17 18:00N 29°42' W 095°01'0 0.0
2017-May-17 17:31N 29°42' W 095°01'0 0.0
2017-May-17 17:00N 29°42' W 095°01'1 1.8
2017-May-17 16:29N 29°42' W 095°00'2 4.8
2017-May-17 15:59N 29°41' W 094°58'2 4.0
2017-May-17 15:31N 29°40' W 094°56'0 0.0
2017-May-16 22:14N 29°40' W 094°56'1 4.3
2017-May-16 22:00N 29°41' W 094°57'1 2.7
2017-May-16 21:27N 29°41' W 094°59'0 0.0
2017-May-16 21:00N 29°41' W 094°59'2 5.0
2017-May-16 20:31N 29°42' W 095°01'1 2.5
2017-May-16 19:58N 29°42' W 095°03'0 0.1
2017-May-16 19:31N 29°42' W 095°03'1 2.4
2017-May-16 18:57N 29°42' W 095°01'3 5.8
2017-May-16 18:30N 29°41' W 094°59'1 1.5
2017-May-16 18:00N 29°41' W 094°58'2 3.7
2017-May-16 17:30N 29°40' W 094°56'0 0.3
2017-May-16 17:01N 29°40' W 094°56'0 0.0
2017-May-16 06:00N 29°40' W 094°56'0 0.0
2017-May-15 21:33N 29°40' W 094°56'0 2.1
2017-May-15 21:25N 29°40' W 094°56'2 5.0
2017-May-15 21:00N 29°41' W 094°58'1 1.6
2017-May-15 20:30N 29°41' W 094°59'2 3.7
2017-May-15 20:00N 29°42' W 095°01'2 0.3
2017-May-15 13:41N 29°42' W 095°03'0 0.0
2017-May-15 13:30N 29°42' W 095°03'0 0.0
2017-May-15 13:01N 29°42' W 095°03'0 0.0
2017-May-15 12:23N 29°42' W 095°03'0 0.0
2017-May-15 11:54N 29°42' W 095°03'0 0.0
2017-May-15 11:28N 29°42' W 095°03'0 0.0
2017-May-15 10:45N 29°42' W 095°03'0 0.0
2017-May-15 10:30N 29°42' W 095°03'0 0.0
2017-May-15 09:58N 29°42' W 095°03'0 0.0
2017-May-15 09:28N 29°42' W 095°03'0 0.0
2017-May-15 08:59N 29°42' W 095°03'0 0.0
2017-May-15 08:29N 29°42' W 095°03'0 0.0
2017-May-15 07:59N 29°42' W 095°03'0 0.0
2017-May-15 07:26N 29°42' W 095°03'0 0.0
2017-May-15 06:52N 29°42' W 095°03'0 0.0
2017-May-15 06:21N 29°42' W 095°03'0 0.0
2017-May-15 05:51N 29°42' W 095°03'0 0.0
2017-May-15 05:22N 29°42' W 095°03'0 0.0
2017-May-15 04:20N 29°42' W 095°03'0 0.0
2017-May-15 03:51N 29°42' W 095°03'0 0.0
2017-May-15 02:58N 29°42' W 095°03'0 0.0
2017-May-15 02:19N 29°42' W 095°03'0 0.0
2017-May-15 01:51N 29°42' W 095°03'0 0.0
2017-May-15 01:25N 29°42' W 095°03'0 0.0
2017-May-15 00:58N 29°42' W 095°03'0 0.0
2017-May-14 22:45N 29°42' W 095°03'0 0.0
2017-May-14 22:20N 29°42' W 095°03'0 0.0
2017-May-14 21:45N 29°42' W 095°03'0 0.0
2017-May-14 21:21N 29°42' W 095°03'0 0.0
2017-May-14 20:52N 29°42' W 095°03'0 0.0
2017-May-14 20:29N 29°42' W 095°03'0 0.0
2017-May-14 18:34N 29°42' W 095°03'0 0.0
2017-May-14 18:09N 29°42' W 095°03'0 0.0
2017-May-14 17:43N 29°42' W 095°03'0 0.0
2017-May-14 17:24N 29°42' W 095°03'0 0.2
2017-May-14 16:50N 29°42' W 095°03'1 3.1
2017-May-14 16:29N 29°42' W 095°01'1 1.2
2017-May-14 16:00N 29°42' W 095°02'1 1.2
2017-May-14 15:29N 29°42' W 095°03'0 0.1
2017-May-14 15:00N 29°42' W 095°03'0 0.0
2017-May-14 14:30N 29°42' W 095°03'0 0.0
2017-May-14 13:30N 29°42' W 095°03'0 0.0
2017-May-14 13:00N 29°42' W 095°03'0 0.0
2017-May-14 12:30N 29°42' W 095°03'0 0.0
2017-May-14 12:00N 29°42' W 095°03'0 0.0
2017-May-14 11:31N 29°42' W 095°03'0 0.0
2017-May-14 11:00N 29°42' W 095°03'0 0.0
2017-May-14 10:31N 29°42' W 095°03'0 0.0
2017-May-14 10:01N 29°42' W 095°03'0 0.0
2017-May-14 09:30N 29°42' W 095°03'0 0.0
2017-May-14 09:01N 29°42' W 095°03'0 0.0
2017-May-14 08:30N 29°42' W 095°03'0 0.0
2017-May-14 08:00N 29°42' W 095°03'0 0.0
2017-May-14 07:30N 29°42' W 095°03'0 0.0
2017-May-14 06:59N 29°42' W 095°03'0 0.0
2017-May-14 06:30N 29°42' W 095°03'0 0.0
2017-May-14 06:00N 29°42' W 095°03'0 0.0
2017-May-14 05:30N 29°42' W 095°03'0 0.0
2017-May-14 05:00N 29°42' W 095°03'0 0.0
2017-May-14 04:30N 29°42' W 095°03'0 0.2
2017-May-14 04:00N 29°42' W 095°03'2 3.2
2017-May-14 03:30N 29°44' W 095°02'1 0.0
2017-May-13 04:49N 29°43' W 095°01'1 4.2
2017-May-13 04:30N 29°42' W 095°02'0 0.3
2017-May-13 03:19N 29°42' W 095°03'0 0.0
2017-May-13 02:45N 29°42' W 095°03'0 0.0
2017-May-13 02:29N 29°42' W 095°03'0 0.0
2017-May-12 15:46N 29°42' W 095°03'0 0.0
2017-May-12 15:29N 29°42' W 095°03'0 0.0
2017-May-12 14:53N 29°42' W 095°03'0 0.0
2017-May-12 14:01N 29°42' W 095°03'0 0.0
2017-May-12 13:20N 29°42' W 095°03'0 0.0
2017-May-12 09:12N 29°42' W 095°03'0 0.0
2017-May-12 08:59N 29°42' W 095°03'0 0.0
2017-May-12 08:25N 29°42' W 095°03'  

Dump ship's entire track history